createdAt,value
2023-07-23T00:05:46.174Z,14.20
2023-07-23T00:08:14.729Z,16.10
2023-07-23T00:13:10.130Z,15.90
2023-07-23T00:20:32.592Z,15.50
2023-07-23T00:27:54.820Z,15.80
2023-07-23T00:32:49.694Z,15.80
2023-07-23T00:35:16.995Z,15.80
2023-07-23T00:40:12.856Z,15.90
2023-07-23T00:47:36.166Z,16.00
2023-07-23T00:50:04.733Z,15.80
2023-07-23T00:55:00.536Z,15.30
2023-07-23T00:57:28.105Z,15.70
2023-07-23T00:59:57.914Z,15.50
2023-07-23T01:02:28.885Z,15.80
2023-07-23T01:04:57.138Z,15.80
2023-07-23T01:07:26.998Z,15.70
2023-07-23T01:09:55.155Z,15.90
2023-07-23T01:12:22.814Z,16.20
2023-07-23T01:14:51.014Z,15.70
2023-07-23T01:17:20.900Z,15.70
2023-07-23T01:20:00.283Z,15.60
2023-07-23T01:22:27.522Z,15.80
2023-07-23T01:24:55.152Z,15.80
2023-07-23T01:34:46.263Z,15.30
2023-07-23T01:37:15.103Z,15.70
2023-07-23T01:39:44.608Z,15.70
2023-07-23T01:42:13.187Z,14.60
2023-07-23T01:44:40.497Z,15.40
2023-07-23T01:49:35.298Z,15.40
2023-07-23T01:54:30.206Z,16.20
2023-07-23T02:04:20.451Z,16.00
2023-07-23T02:09:21.540Z,16.00
2023-07-23T02:11:48.816Z,15.50
2023-07-23T02:19:12.828Z,16.10
2023-07-23T02:26:35.243Z,15.70
2023-07-23T02:31:30.366Z,15.70
2023-07-23T02:33:57.971Z,16.00
2023-07-23T02:53:38.070Z,16.10
2023-07-23T02:58:33.034Z,15.20
2023-07-23T03:03:28.122Z,15.10
2023-07-23T03:10:50.471Z,15.50
2023-07-23T03:23:08.157Z,15.40
2023-07-23T03:32:59.347Z,15.40
2023-07-23T03:35:26.626Z,15.40
2023-07-23T03:37:54.730Z,15.40
2023-07-23T03:42:49.543Z,15.30
2023-07-23T03:52:39.847Z,15.20
2023-07-23T03:55:07.408Z,14.90
2023-07-23T04:05:06.876Z,15.20
2023-07-23T04:12:34.899Z,14.90
2023-07-23T04:15:05.999Z,14.90
2023-07-23T04:17:33.900Z,15.50
2023-07-23T04:22:29.426Z,14.90
2023-07-23T04:49:33.992Z,14.80
2023-07-23T05:24:04.269Z,15.50
2023-07-23T05:33:54.876Z,15.70
2023-07-23T05:36:22.083Z,15.30
2023-07-23T05:41:16.974Z,15.90
2023-07-23T05:43:44.128Z,15.60
2023-07-23T05:56:01.805Z,16.00
2023-07-23T05:58:29.246Z,16.30
2023-07-23T06:03:24.375Z,16.70
2023-07-23T06:18:09.336Z,16.80
2023-07-23T06:27:59.624Z,17.60
2023-07-23T06:40:17.407Z,17.80
2023-07-23T06:42:45.700Z,17.70
2023-07-23T06:55:06.038Z,17.90
2023-07-23T07:04:56.187Z,19.10
2023-07-23T07:07:23.662Z,18.90
2023-07-23T07:27:09.516Z,19.10
2023-07-23T07:29:41.269Z,19.10
2023-07-23T07:32:10.514Z,19.20
2023-07-23T07:42:01.497Z,19.90
2023-07-23T07:44:32.566Z,19.50
2023-07-23T07:56:52.280Z,19.70
2023-07-23T08:01:47.804Z,20.10
2023-07-23T08:06:44.383Z,20.20
2023-07-23T08:09:13.595Z,20.80
2023-07-23T08:11:41.872Z,20.30
2023-07-23T08:14:10.821Z,20.20
2023-07-23T08:19:06.311Z,20.80
2023-07-23T08:24:02.610Z,20.70
2023-07-23T08:26:35.654Z,20.80
2023-07-23T08:29:09.268Z,21.00
2023-07-23T08:31:37.505Z,21.20
2023-07-23T08:34:05.286Z,21.20
2023-07-23T08:36:33.145Z,21.00
2023-07-23T08:45:10.231Z,21.50
2023-07-23T08:47:39.851Z,21.70
2023-07-23T08:50:07.966Z,22.00
2023-07-23T08:55:04.886Z,22.00
2023-07-23T08:57:34.805Z,22.00
2023-07-23T09:00:04.062Z,22.00
2023-07-23T09:02:33.681Z,22.30
2023-07-23T09:07:28.830Z,22.00
2023-07-23T09:09:56.217Z,22.10
2023-07-23T09:12:23.362Z,22.10
2023-07-23T09:17:22.495Z,22.20
2023-07-23T09:27:17.509Z,22.30
2023-07-23T09:32:26.986Z,22.80
2023-07-23T09:35:00.128Z,22.40
2023-07-23T09:37:28.507Z,22.50
2023-07-23T09:40:00.301Z,22.50
2023-07-23T09:45:02.372Z,22.20
2023-07-23T09:52:38.251Z,22.80
2023-07-23T09:55:07.819Z,22.50
2023-07-23T09:57:37.697Z,23.00
2023-07-23T10:02:46.844Z,23.00
2023-07-23T10:05:18.554Z,23.00
2023-07-23T10:07:49.094Z,23.10
2023-07-23T10:10:17.482Z,23.00
2023-07-23T10:12:44.955Z,23.10
2023-07-23T10:15:12.422Z,22.80
2023-07-23T10:17:52.163Z,23.20
2023-07-23T10:20:20.652Z,23.20
2023-07-23T10:22:48.955Z,22.50
2023-07-23T10:25:35.197Z,23.30
2023-07-23T10:28:09.733Z,23.40
2023-07-23T10:30:38.817Z,23.40
2023-07-23T10:33:12.596Z,23.40
2023-07-23T10:36:01.345Z,22.20
2023-07-23T10:38:35.196Z,23.10
2023-07-23T10:41:03.980Z,23.50
2023-07-23T10:43:45.726Z,23.40
2023-07-23T10:46:21.517Z,23.20
2023-07-23T10:48:53.515Z,23.00
2023-07-23T10:51:23.720Z,23.00
2023-07-23T10:54:07.715Z,23.00
2023-07-23T10:59:20.891Z,22.80
2023-07-23T11:01:52.581Z,23.00
2023-07-23T11:04:27.843Z,23.20
2023-07-23T11:07:06.195Z,23.00
2023-07-23T11:09:36.697Z,23.00
2023-07-23T11:12:09.161Z,23.10
2023-07-23T11:14:37.093Z,23.40
2023-07-23T11:17:05.769Z,23.30
2023-07-23T11:19:34.080Z,23.20
2023-07-23T11:22:06.237Z,23.30
2023-07-23T11:24:33.800Z,23.10
2023-07-23T11:27:05.271Z,23.30
2023-07-23T11:29:35.223Z,24.10
2023-07-23T11:32:04.849Z,23.50
2023-07-23T11:34:33.829Z,23.70
2023-07-23T11:37:01.218Z,23.50
2023-07-23T11:39:28.462Z,23.50
2023-07-23T11:41:55.881Z,23.60
2023-07-23T11:44:23.691Z,23.70
2023-07-23T11:49:26.955Z,23.80
2023-07-23T11:56:52.918Z,24.00
2023-07-23T11:59:20.288Z,24.10
2023-07-23T12:01:47.807Z,24.10
2023-07-23T12:04:15.387Z,23.90
2023-07-23T12:06:42.677Z,24.10
2023-07-23T12:09:13.006Z,24.30
2023-07-23T12:11:43.961Z,24.10
2023-07-23T12:14:16.208Z,24.40
2023-07-23T12:16:48.903Z,24.40
2023-07-23T12:19:18.918Z,24.60
2023-07-23T12:21:55.805Z,24.70
2023-07-23T12:24:27.858Z,24.00
2023-07-23T12:27:00.724Z,24.40
2023-07-23T12:29:29.862Z,24.40
2023-07-23T12:32:17.037Z,24.30
2023-07-23T12:34:49.956Z,21.20
2023-07-23T12:37:18.008Z,24.20
2023-07-23T12:39:49.376Z,24.30
2023-07-23T12:42:16.705Z,24.20
2023-07-23T12:44:44.245Z,24.00
2023-07-23T12:47:41.054Z,23.90
2023-07-23T12:52:37.241Z,23.90
2023-07-23T12:55:05.506Z,23.70
2023-07-23T12:57:33.082Z,23.40
2023-07-23T13:00:00.246Z,23.60
2023-07-23T13:04:55.021Z,23.40
2023-07-23T13:07:22.182Z,23.20
2023-07-23T13:09:51.242Z,23.50
2023-07-23T13:12:18.378Z,23.20
2023-07-23T13:14:45.497Z,23.10
2023-07-23T13:17:12.787Z,22.90
2023-07-23T13:19:40.451Z,22.90
2023-07-23T13:22:07.826Z,22.90
2023-07-23T13:24:35.045Z,23.00
2023-07-23T13:27:02.181Z,22.50
2023-07-23T13:31:56.908Z,23.30
2023-07-23T13:36:51.958Z,24.60
2023-07-23T13:39:19.249Z,23.10
2023-07-23T13:41:46.422Z,23.10
2023-07-23T13:46:41.368Z,23.40
2023-07-23T13:49:11.761Z,23.00
2023-07-23T13:51:39.158Z,23.20
2023-07-23T13:54:06.290Z,22.60
2023-07-23T13:56:33.549Z,23.10
2023-07-23T13:59:00.897Z,23.10
2023-07-23T14:01:28.751Z,23.30
2023-07-23T14:03:56.095Z,23.20
2023-07-23T14:13:47.094Z,23.00
2023-07-23T14:16:14.459Z,23.20
2023-07-23T14:18:41.657Z,23.40
2023-07-23T14:21:09.199Z,23.40
2023-07-23T14:23:36.748Z,23.40
2023-07-23T14:26:04.110Z,23.30
2023-07-23T14:28:31.414Z,23.40
2023-07-23T14:30:58.608Z,23.40
2023-07-23T14:33:25.816Z,23.30
2023-07-23T14:38:22.200Z,23.60
2023-07-23T14:43:17.604Z,23.80
2023-07-23T14:45:44.718Z,23.60
2023-07-23T14:48:11.937Z,24.00
2023-07-23T14:53:06.627Z,23.80
2023-07-23T14:55:34.469Z,23.90
2023-07-23T14:58:01.760Z,24.10
2023-07-23T15:00:29.499Z,23.70
2023-07-23T15:02:57.165Z,23.60
2023-07-23T15:05:25.168Z,23.70
2023-07-23T15:10:22.401Z,23.50
2023-07-23T15:12:50.181Z,23.90
2023-07-23T15:15:18.149Z,24.20
2023-07-23T15:17:45.823Z,23.90
2023-07-23T15:20:14.314Z,23.80
2023-07-23T15:25:22.620Z,24.20
2023-07-23T15:27:52.766Z,24.20
2023-07-23T15:37:43.400Z,24.20
2023-07-23T15:40:14.750Z,24.20
2023-07-23T15:42:42.178Z,24.20
2023-07-23T15:45:10.082Z,24.30
2023-07-23T15:47:37.260Z,24.40
2023-07-23T15:50:06.937Z,24.10
2023-07-23T15:52:34.120Z,24.00
2023-07-23T15:55:01.518Z,24.00
2023-07-23T15:57:28.772Z,24.10
2023-07-23T15:59:56.091Z,23.90
2023-07-23T16:02:23.325Z,24.20
2023-07-23T16:04:50.616Z,23.70
2023-07-23T16:07:17.975Z,23.10
2023-07-23T16:09:45.214Z,23.90
2023-07-23T16:12:12.699Z,23.70
2023-07-23T16:14:39.970Z,23.90
2023-07-23T16:17:07.295Z,23.50
2023-07-23T16:19:34.568Z,23.80
2023-07-23T16:22:01.775Z,23.40
2023-07-23T16:24:29.089Z,24.20
2023-07-23T16:26:56.386Z,23.90
2023-07-23T16:29:23.752Z,23.90
2023-07-23T16:31:51.471Z,24.50
2023-07-23T16:34:19.267Z,24.00
2023-07-23T16:36:50.805Z,24.00
2023-07-23T16:39:19.800Z,24.30
2023-07-23T16:41:47.823Z,24.30
2023-07-23T16:44:15.378Z,24.10
2023-07-23T16:46:42.684Z,24.00
2023-07-23T16:49:09.813Z,24.20
2023-07-23T16:51:37.008Z,24.20
2023-07-23T16:54:04.501Z,24.10
2023-07-23T16:56:32.275Z,28.00
2023-07-23T16:58:59.643Z,24.00
2023-07-23T17:01:27.639Z,24.00
2023-07-23T17:03:55.031Z,24.00
2023-07-23T17:06:24.201Z,24.00
2023-07-23T17:08:51.500Z,24.10
2023-07-23T17:11:26.188Z,23.90
2023-07-23T17:13:53.934Z,23.70
2023-07-23T17:16:21.182Z,24.00
2023-07-23T17:18:48.641Z,23.80
2023-07-23T17:21:15.989Z,24.10
2023-07-23T17:23:43.449Z,24.20
2023-07-23T17:26:10.517Z,24.30
2023-07-23T17:28:37.959Z,24.40
2023-07-23T17:31:05.164Z,24.20
2023-07-23T17:33:32.725Z,24.00
2023-07-23T17:35:59.962Z,24.00
2023-07-23T17:38:27.128Z,24.00
2023-07-23T17:40:54.506Z,24.00
2023-07-23T17:43:21.655Z,23.80
2023-07-23T17:45:48.854Z,23.50
2023-07-23T17:48:16.169Z,23.70
2023-07-23T17:50:43.391Z,23.60
2023-07-23T17:53:10.554Z,23.60
2023-07-23T17:55:37.709Z,23.50
2023-07-23T17:58:05.108Z,23.30
2023-07-23T18:00:32.370Z,23.30
2023-07-23T18:03:00.423Z,23.10
2023-07-23T18:05:27.625Z,23.10
2023-07-23T18:07:55.550Z,23.50
2023-07-23T18:10:22.938Z,23.50
2023-07-23T18:12:51.602Z,23.20
2023-07-23T18:15:18.874Z,23.10
2023-07-23T18:17:46.355Z,23.10
2023-07-23T18:20:13.751Z,23.20
2023-07-23T18:22:41.253Z,22.40
2023-07-23T18:25:09.336Z,23.00
2023-07-23T18:27:37.200Z,23.10
2023-07-23T18:30:05.214Z,23.00
2023-07-23T18:32:32.514Z,23.10
2023-07-23T18:34:59.864Z,22.70
2023-07-23T18:37:28.352Z,22.80
2023-07-23T18:39:55.690Z,22.90
2023-07-23T18:42:22.885Z,22.20
2023-07-23T18:44:50.438Z,22.70
2023-07-23T18:47:18.749Z,22.60
2023-07-23T18:49:46.364Z,22.60
2023-07-23T18:52:13.454Z,22.70
2023-07-23T18:54:40.604Z,22.60
2023-07-23T18:57:08.939Z,22.40
2023-07-23T18:59:36.099Z,22.60
2023-07-23T19:02:03.344Z,22.60
2023-07-23T19:04:46.645Z,22.60
2023-07-23T19:07:15.477Z,22.70
2023-07-23T19:09:42.817Z,22.50
2023-07-23T19:12:09.963Z,22.50
2023-07-23T19:14:37.238Z,22.50
2023-07-23T19:17:04.780Z,23.40
2023-07-23T19:19:32.464Z,22.30
2023-07-23T19:21:59.840Z,22.40
2023-07-23T19:24:27.019Z,22.30
2023-07-23T19:26:54.188Z,22.20
2023-07-23T19:29:21.332Z,21.80
2023-07-23T19:31:48.516Z,22.40
2023-07-23T19:34:15.630Z,22.40
2023-07-23T19:36:42.893Z,22.10
2023-07-23T19:39:10.082Z,21.90
2023-07-23T19:41:39.568Z,22.00
2023-07-23T19:44:06.811Z,21.90
2023-07-23T19:46:35.264Z,22.20
2023-07-23T19:49:02.668Z,21.90
2023-07-23T19:51:29.785Z,22.00
2023-07-23T19:53:57.563Z,21.70
2023-07-23T19:56:24.793Z,21.90
2023-07-23T19:58:52.009Z,21.90
2023-07-23T20:01:19.344Z,22.70
2023-07-23T20:03:50.698Z,21.80
2023-07-23T20:06:17.992Z,21.80
2023-07-23T20:08:45.130Z,21.80
2023-07-23T20:11:13.495Z,21.80
2023-07-23T20:13:40.662Z,21.70
2023-07-23T20:16:08.544Z,21.60
2023-07-23T20:18:35.806Z,21.70
2023-07-23T20:21:03.013Z,21.70
2023-07-23T20:23:30.143Z,21.60
2023-07-23T20:25:58.746Z,21.60
2023-07-23T20:28:26.676Z,22.10
2023-07-23T20:30:54.850Z,21.70
2023-07-23T20:33:22.811Z,21.40
2023-07-23T20:35:59.197Z,21.50
2023-07-23T20:38:28.873Z,21.40
2023-07-23T20:40:56.593Z,21.30
2023-07-23T20:43:23.934Z,21.40
2023-07-23T20:45:51.063Z,21.40
2023-07-23T20:48:18.318Z,21.40
2023-07-23T20:50:45.845Z,21.30
2023-07-23T20:53:13.230Z,21.40
2023-07-23T20:55:40.384Z,21.40
2023-07-23T20:58:07.716Z,21.20
2023-07-23T21:00:35.588Z,21.50
2023-07-23T21:03:02.876Z,20.50
2023-07-23T21:05:30.104Z,21.20
2023-07-23T21:07:57.404Z,21.20
2023-07-23T21:10:24.588Z,21.30
2023-07-23T21:12:51.737Z,21.20
2023-07-23T21:15:19.060Z,21.00
2023-07-23T21:20:13.757Z,21.10
2023-07-23T21:22:40.893Z,21.20
2023-07-23T21:25:08.366Z,21.00
2023-07-23T21:30:03.994Z,21.00
2023-07-23T21:32:31.276Z,21.10
2023-07-23T21:34:58.455Z,21.00
2023-07-23T21:37:27.420Z,20.90
2023-07-23T21:39:54.640Z,20.80
2023-07-23T21:42:21.790Z,21.10
2023-07-23T21:47:16.640Z,20.80
2023-07-23T21:49:43.863Z,20.90
2023-07-23T21:52:11.040Z,20.90
2023-07-23T21:54:41.113Z,20.80
2023-07-23T21:57:08.961Z,20.80
2023-07-23T21:59:36.336Z,20.80
2023-07-23T22:02:03.662Z,20.70
2023-07-23T22:04:30.913Z,20.70
2023-07-23T22:06:58.197Z,20.70
2023-07-23T22:09:25.666Z,20.70
2023-07-23T22:11:52.820Z,20.60
2023-07-23T22:14:19.938Z,20.70
2023-07-23T22:16:47.243Z,20.30
2023-07-23T22:19:14.483Z,20.60
2023-07-23T22:21:41.731Z,20.60
2023-07-23T22:24:08.986Z,20.50
2023-07-23T22:26:36.174Z,20.50
2023-07-23T22:29:03.356Z,20.50
2023-07-23T22:31:30.531Z,20.40
2023-07-23T22:34:00.237Z,20.50
2023-07-23T22:36:28.165Z,20.40
2023-07-23T22:38:55.448Z,20.40
2023-07-23T22:41:22.775Z,20.40
2023-07-23T22:43:56.029Z,20.40
2023-07-23T22:46:26.005Z,20.30
2023-07-23T22:48:54.057Z,20.30
2023-07-23T22:51:21.245Z,20.20
2023-07-23T22:53:48.819Z,20.20
2023-07-23T22:56:17.269Z,20.20
2023-07-23T22:58:49.402Z,20.20
2023-07-23T23:01:18.780Z,20.10
2023-07-23T23:03:46.075Z,20.10
2023-07-23T23:06:13.651Z,20.10
2023-07-23T23:08:40.818Z,20.00
2023-07-23T23:11:08.095Z,20.00
2023-07-23T23:13:35.190Z,20.00
2023-07-23T23:16:02.873Z,19.90
2023-07-23T23:18:30.075Z,20.30
2023-07-23T23:20:57.464Z,19.90
2023-07-23T23:23:24.898Z,19.80
2023-07-23T23:25:52.802Z,19.80
2023-07-23T23:28:19.966Z,19.80
2023-07-23T23:30:53.517Z,19.70
2023-07-23T23:33:21.324Z,19.40
2023-07-23T23:35:48.538Z,19.70
2023-07-23T23:38:15.744Z,19.70
2023-07-23T23:40:43.030Z,19.60
2023-07-23T23:43:10.203Z,19.60
2023-07-23T23:45:37.692Z,19.50
2023-07-23T23:48:05.295Z,19.50
2023-07-23T23:50:32.558Z,19.50
2023-07-23T23:52:59.816Z,19.40
2023-07-23T23:55:27.106Z,19.40
2023-07-23T23:57:55.487Z,18.90
